createdAt,value
2022-11-03T00:00:00.991Z,1006.18
2022-11-03T00:05:05.113Z,1006.08
2022-11-03T00:10:09.288Z,1006.10
2022-11-03T00:15:13.430Z,1006.05
2022-11-03T00:20:17.613Z,1006.05
2022-11-03T00:25:21.743Z,1006.00
2022-11-03T00:30:25.932Z,1005.93
2022-11-03T00:35:30.115Z,1005.92
2022-11-03T00:40:34.235Z,1005.79
2022-11-03T00:45:38.404Z,1005.71
2022-11-03T00:50:42.569Z,1005.83
2022-11-03T00:55:44.844Z,1005.63
2022-11-03T01:00:49.112Z,1005.68
2022-11-03T01:05:53.142Z,1005.56
2022-11-03T01:10:57.338Z,1005.57
2022-11-03T01:16:01.516Z,1005.51
2022-11-03T01:21:05.650Z,1005.35
2022-11-03T01:26:09.803Z,1005.33
2022-11-03T01:31:13.988Z,1005.45
2022-11-03T01:36:18.124Z,1005.35
2022-11-03T01:41:22.395Z,1005.20
2022-11-03T01:46:26.460Z,1005.08
2022-11-03T01:51:30.631Z,1005.07
2022-11-03T01:56:34.763Z,1004.93
2022-11-03T02:01:39.040Z,1004.82
2022-11-03T02:06:43.141Z,1004.74
2022-11-03T02:11:47.266Z,1004.57
2022-11-03T02:16:51.437Z,1004.47
2022-11-03T02:21:55.601Z,1004.47
2022-11-03T02:26:59.764Z,1004.31
2022-11-03T02:32:03.915Z,1004.28
2022-11-03T02:37:08.064Z,1004.16
2022-11-03T02:42:12.234Z,1004.06
2022-11-03T02:47:16.411Z,1003.90
2022-11-03T02:52:20.561Z,1003.77
2022-11-03T02:57:24.727Z,1003.78
2022-11-03T03:02:28.953Z,1003.69
2022-11-03T03:07:33.036Z,1003.55
2022-11-03T03:12:37.183Z,1003.53
2022-11-03T03:17:41.428Z,1003.48
2022-11-03T03:22:45.511Z,1003.38
2022-11-03T03:27:49.653Z,1003.39
2022-11-03T03:32:53.881Z,1003.37
2022-11-03T03:37:58.087Z,1003.35
2022-11-03T03:43:02.176Z,1003.16
2022-11-03T03:48:06.502Z,1003.07
2022-11-03T03:53:10.509Z,1003.06
2022-11-03T03:58:14.659Z,1003.07
2022-11-03T04:03:18.816Z,1002.93
2022-11-03T04:08:22.961Z,1002.88
2022-11-03T04:13:27.356Z,1002.83
2022-11-03T04:18:31.383Z,1002.70
2022-11-03T04:23:35.438Z,1002.64
2022-11-03T04:28:39.607Z,1002.48
2022-11-03T04:33:43.781Z,1002.50
2022-11-03T04:38:47.944Z,1002.38
2022-11-03T04:43:52.108Z,1002.35
2022-11-03T04:48:56.242Z,1002.29
2022-11-03T04:54:00.438Z,1002.29
2022-11-03T04:59:04.586Z,1002.28
2022-11-03T05:04:08.732Z,1002.25
2022-11-03T05:09:12.896Z,1002.23
2022-11-03T05:14:17.056Z,1002.18
2022-11-03T05:19:21.225Z,1002.12
2022-11-03T05:24:25.361Z,1002.10
2022-11-03T05:29:29.524Z,1002.07
2022-11-03T05:34:33.732Z,1002.00
2022-11-03T05:39:37.885Z,1001.88
2022-11-03T05:44:41.997Z,1001.87
2022-11-03T05:49:46.184Z,1001.76
2022-11-03T05:54:50.351Z,1001.68
2022-11-03T05:59:54.496Z,1001.66
2022-11-03T06:04:58.653Z,1001.58
2022-11-03T06:10:02.927Z,1001.56
2022-11-03T06:15:06.998Z,1001.59
2022-11-03T06:20:11.158Z,1001.62
2022-11-03T06:25:13.434Z,1001.63
2022-11-03T06:30:17.579Z,1001.50
2022-11-03T06:35:21.774Z,1001.47
2022-11-03T06:40:25.911Z,1001.47
2022-11-03T06:45:30.055Z,1001.42
2022-11-03T06:50:34.230Z,1001.37
2022-11-03T06:55:38.405Z,1001.28
2022-11-03T07:00:45.857Z,1001.20
2022-11-03T07:05:46.729Z,1001.11
2022-11-03T07:10:50.887Z,1001.03
2022-11-03T07:15:55.059Z,1001.18
2022-11-03T07:20:59.184Z,1001.13
2022-11-03T07:26:03.342Z,1001.08
2022-11-03T07:31:10.181Z,1001.00
2022-11-03T07:36:16.164Z,1000.92
2022-11-03T07:41:15.830Z,1000.91
2022-11-03T07:46:20.035Z,1000.98
2022-11-03T07:51:24.136Z,1000.99
2022-11-03T07:56:28.387Z,1000.72
2022-11-03T08:01:32.575Z,1000.62
2022-11-03T08:06:36.663Z,1000.48
2022-11-03T08:11:40.806Z,1000.54
2022-11-03T08:16:44.957Z,1000.61
2022-11-03T08:21:49.120Z,1000.56
2022-11-03T08:26:53.277Z,1000.41
2022-11-03T08:31:57.425Z,1000.41
2022-11-03T08:37:01.616Z,1000.40
2022-11-03T08:42:05.812Z,1000.49
2022-11-03T08:47:09.925Z,1000.42
2022-11-03T08:52:14.107Z,1000.30
2022-11-03T08:57:18.257Z,1000.33
2022-11-03T09:02:22.441Z,1000.37
2022-11-03T09:12:30.801Z,1000.26
2022-11-03T09:17:34.901Z,1000.24
2022-11-03T09:22:39.038Z,1000.23
2022-11-03T09:27:43.235Z,1000.22
2022-11-03T09:32:47.354Z,1000.13
2022-11-03T09:37:51.563Z,999.92
2022-11-03T09:42:55.706Z,999.89
2022-11-03T09:47:59.821Z,999.71
2022-11-03T09:53:04.289Z,999.76
2022-11-03T09:58:08.425Z,999.72
2022-11-03T10:03:12.331Z,999.59
2022-11-03T10:08:18.482Z,999.45
2022-11-03T10:13:20.641Z,999.52
2022-11-03T10:18:24.839Z,999.44
2022-11-03T10:23:28.986Z,999.31
2022-11-03T10:28:33.123Z,999.04
2022-11-03T10:33:37.295Z,998.97
2022-11-03T10:38:41.586Z,998.58
2022-11-03T10:43:45.631Z,998.72
2022-11-03T10:53:53.924Z,998.47
2022-11-03T11:04:02.299Z,998.48
2022-11-03T11:09:06.419Z,998.27
2022-11-03T11:14:10.563Z,997.89
2022-11-03T11:19:14.718Z,997.83
2022-11-03T11:24:18.904Z,997.87
2022-11-03T11:29:23.074Z,997.85
2022-11-03T11:34:27.260Z,997.63
2022-11-03T11:39:31.378Z,997.35
2022-11-03T11:44:35.651Z,997.50
2022-11-03T11:49:39.688Z,997.58
2022-11-03T11:54:41.937Z,997.44
2022-11-03T11:59:46.127Z,997.28
2022-11-03T12:04:50.300Z,997.33
2022-11-03T12:09:54.446Z,997.51
2022-11-03T12:14:58.607Z,997.39
2022-11-03T12:20:02.730Z,997.20
2022-11-03T12:25:05.036Z,996.93
2022-11-03T12:30:09.246Z,996.69
2022-11-03T12:35:13.357Z,996.60
2022-11-03T12:40:17.499Z,996.48
2022-11-03T12:45:21.783Z,996.37
2022-11-03T12:50:25.815Z,996.20
2022-11-03T12:55:29.987Z,996.08
2022-11-03T13:00:34.167Z,996.19
2022-11-03T13:05:38.293Z,995.88
2022-11-03T13:10:42.482Z,995.76
2022-11-03T13:15:46.618Z,995.45
2022-11-03T13:20:50.810Z,995.22
2022-11-03T13:25:55.046Z,995.05
2022-11-03T13:30:59.138Z,995.18
2022-11-03T13:36:03.355Z,994.90
2022-11-03T13:41:08.972Z,994.86
2022-11-03T13:46:11.584Z,994.81
2022-11-03T13:51:15.825Z,994.65
2022-11-03T13:56:22.132Z,994.52
2022-11-03T14:01:24.237Z,994.34
2022-11-03T14:06:28.219Z,994.26
2022-11-03T14:11:32.422Z,994.20
2022-11-03T14:16:36.627Z,994.06
2022-11-03T14:21:40.714Z,993.72
2022-11-03T14:26:44.946Z,993.57
2022-11-03T14:31:49.042Z,993.44
2022-11-03T14:36:53.214Z,993.57
2022-11-03T14:41:57.343Z,993.60
2022-11-03T14:47:01.487Z,993.41
2022-11-03T14:52:05.672Z,993.32
2022-11-03T14:57:09.870Z,993.18
2022-11-03T15:02:14.089Z,993.22
2022-11-03T15:07:18.135Z,993.18
2022-11-03T15:12:22.340Z,993.22
2022-11-03T15:17:26.501Z,993.32
2022-11-03T15:27:34.808Z,993.22
2022-11-03T15:32:38.956Z,993.16
2022-11-03T15:37:43.099Z,993.10
2022-11-03T15:42:47.258Z,992.94
2022-11-03T15:47:54.653Z,992.96
2022-11-03T15:52:55.578Z,992.56
2022-11-03T15:57:59.748Z,992.46
2022-11-03T16:03:03.998Z,992.43
2022-11-03T16:08:08.428Z,992.27
2022-11-03T16:13:12.265Z,991.96
2022-11-03T16:18:16.394Z,991.55
2022-11-03T16:23:20.638Z,991.31
2022-11-03T16:33:28.881Z,990.76
2022-11-03T16:38:33.067Z,990.32
2022-11-03T16:43:37.193Z,989.91
2022-11-03T16:48:41.375Z,989.83
2022-11-03T16:53:45.547Z,989.44
2022-11-03T16:58:49.700Z,988.62
2022-11-03T17:03:53.826Z,988.49
2022-11-03T17:08:57.952Z,988.21
2022-11-03T17:14:02.178Z,987.79
2022-11-03T17:19:06.292Z,987.31
2022-11-03T17:24:10.479Z,986.55
2022-11-03T17:29:14.627Z,986.31
2022-11-03T17:34:18.773Z,986.14
2022-11-03T17:39:23.087Z,985.86
2022-11-03T17:44:27.137Z,985.63
2022-11-03T17:49:31.335Z,985.72
2022-11-03T17:54:33.539Z,985.73
2022-11-03T17:59:37.730Z,985.76
2022-11-03T18:04:41.841Z,985.75
2022-11-03T18:09:46.044Z,985.73
2022-11-03T18:14:50.219Z,985.70
2022-11-03T18:19:54.473Z,985.60
2022-11-03T18:24:58.525Z,985.70
2022-11-03T18:30:02.697Z,985.62
2022-11-03T18:35:06.856Z,985.48
2022-11-03T18:40:11.033Z,985.24
2022-11-03T18:45:15.174Z,984.99
2022-11-03T18:50:19.289Z,984.77
2022-11-03T18:55:23.499Z,984.54
2022-11-03T19:00:27.650Z,984.40
2022-11-03T19:05:31.881Z,984.23
2022-11-03T19:10:35.970Z,984.27
2022-11-03T19:15:40.131Z,984.31
2022-11-03T19:20:44.323Z,984.48
2022-11-03T19:25:48.459Z,984.55
2022-11-03T19:30:57.656Z,984.64
2022-11-03T19:35:56.763Z,984.52
2022-11-03T19:41:00.917Z,984.49
2022-11-03T19:46:05.075Z,984.33
2022-11-03T19:51:09.263Z,984.19
2022-11-03T19:56:13.433Z,983.96
2022-11-03T20:01:17.630Z,983.90
2022-11-03T20:06:21.789Z,983.84
2022-11-03T20:11:25.855Z,983.65
2022-11-03T20:16:30.059Z,983.67
2022-11-03T20:21:34.640Z,983.61
2022-11-03T20:26:38.383Z,983.60
2022-11-03T20:31:42.517Z,983.51
2022-11-03T20:36:46.714Z,983.46
2022-11-03T20:41:50.850Z,983.44
2022-11-03T20:46:54.996Z,983.48
2022-11-03T20:51:59.173Z,983.41
2022-11-03T20:57:03.343Z,983.38
2022-11-03T21:07:11.673Z,983.37
2022-11-03T21:12:15.901Z,983.37
2022-11-03T21:17:20.063Z,983.48
2022-11-03T21:22:50.261Z,983.67
2022-11-03T21:27:28.335Z,983.66
2022-11-03T21:32:32.512Z,983.71
2022-11-03T21:37:36.676Z,983.83
2022-11-03T21:42:40.957Z,983.97
2022-11-03T21:47:44.998Z,984.00
2022-11-03T21:52:49.123Z,983.92
2022-11-03T21:57:53.237Z,984.08
2022-11-03T22:02:57.444Z,984.17
2022-11-03T22:08:01.585Z,984.15
2022-11-03T22:13:06.181Z,984.14
2022-11-03T22:18:10.060Z,983.99
2022-11-03T22:23:14.066Z,984.07
2022-11-03T22:28:18.595Z,984.21
2022-11-03T22:33:22.357Z,984.24
2022-11-03T22:38:26.582Z,984.19
2022-11-03T22:43:30.696Z,984.25
2022-11-03T22:48:34.866Z,984.38
2022-11-03T22:53:39.023Z,984.50
2022-11-03T22:58:43.183Z,984.49
2022-11-03T23:03:47.339Z,984.49
2022-11-03T23:08:51.554Z,984.52
2022-11-03T23:13:55.702Z,984.46
2022-11-03T23:18:59.846Z,984.55
2022-11-03T23:24:02.087Z,984.44
2022-11-03T23:29:06.261Z,984.35
2022-11-03T23:34:10.446Z,984.72
2022-11-03T23:39:14.557Z,985.08
2022-11-03T23:44:18.750Z,985.41
2022-11-03T23:49:22.891Z,985.43
2022-11-03T23:54:27.104Z,985.60
2022-11-03T23:59:31.308Z,985.70
